Time;durP1;ratioP1;P1;durP2;ratioP2;P2;SDS_P1;SDS_P2;PMS_P1;PMS_P2;Temp;Humidity;BMP_temperature;BMP_pressure;BME280_temperature;BME280_humidity;BME280_pressure;Samples;Min_cycle;Max_cycle;Signal;HPM_P1;HPM_P2
2022/11/02 00:01:13;;;;;;;;;;;;;;;9.41;100.00;100954.50;5537934;32;34910;-70
2022/11/02 00:04:21;;;;;;;;;;;;;;;9.37;100.00;100953.13;5550881;32;34536;-70
2022/11/02 00:07:27;;;;;;;;;;;;;;;9.30;100.00;100954.69;5550874;32;34554;-70
2022/11/02 00:10:41;;;;;;;;;;;;;;;9.29;100.00;100950.41;5537240;32;34424;-70
2022/11/02 00:13:48;;;;;;;;;;;;;;;9.23;100.00;100961.56;5549995;32;34890;-70
2022/11/02 00:16:57;;;;;;;;;;;;;;;9.24;100.00;100962.41;5550800;32;34400;-70
2022/11/02 00:20:04;;;;;;;;;;;;;;;9.18;100.00;100968.25;5550865;32;34906;-70
2022/11/02 00:23:10;;;;;;;;;;;;;;;9.19;100.00;100965.47;5550613;32;35081;-70
2022/11/02 00:26:17;;;;;;;;;;;;;;;9.20;100.00;100967.12;5550785;32;34635;-70
2022/11/02 00:29:24;;;;;;;;;;;;;;;9.22;100.00;100974.94;5550568;32;34626;-70
2022/11/02 00:32:36;;;;;;;;;;;;;;;9.33;100.00;100969.47;5550680;32;34628;-70
2022/11/02 00:35:44;;;;;;;;;;;;;;;9.59;100.00;100970.44;5551094;32;35126;-70
2022/11/02 00:38:53;;;;;;;;;;;;;;;9.78;100.00;100969.53;5550683;32;35156;-70
2022/11/02 00:42:03;;;;;;;;;;;;;;;9.87;100.00;100966.84;5550878;32;35190;-70
2022/11/02 00:45:09;;;;;;;;;;;;;;;9.99;100.00;100954.19;5550533;32;35046;-70
2022/11/02 00:48:18;;;;;;;;;;;;;;;9.95;100.00;100958.13;5550514;32;34917;-70
2022/11/02 00:51:25;;;;;;;;;;;;;;;9.99;100.00;100965.63;5550619;32;34546;-70
2022/11/02 00:54:34;;;;;;;;;;;;;;;10.02;100.00;100967.16;5550479;32;34676;-70
2022/11/02 00:57:41;;;;;;;;;;;;;;;9.98;100.00;100963.09;5523837;32;34623;-70
2022/11/02 01:00:48;;;;;;;;;;;;;;;9.97;100.00;100964.91;5550339;32;34623;-70
2022/11/02 01:03:54;;;;;;;;;;;;;;;9.94;100.00;100965.22;5536905;32;34562;-70
2022/11/02 01:07:01;;;;;;;;;;;;;;;9.88;100.00;100965.81;5536188;32;34720;-70
2022/11/02 01:10:10;;;;;;;;;;;;;;;9.83;100.00;100959.28;5537147;32;35250;-70
2022/11/02 01:13:17;;;;;;;;;;;;;;;9.78;100.00;100954.44;5550059;32;34970;-70
2022/11/02 01:16:23;;;;;;;;;;;;;;;9.85;100.00;100952.88;5550083;32;34343;-71
2022/11/02 01:19:30;;;;;;;;;;;;;;;9.81;100.00;100954.16;5550124;32;35039;-70
2022/11/02 01:22:38;;;;;;;;;;;;;;;9.83;100.00;100962.78;5550060;32;35217;-70
2022/11/02 01:25:46;;;;;;;;;;;;;;;9.95;100.00;100958.97;5551570;32;34874;-70
2022/11/02 01:28:54;;;;;;;;;;;;;;;9.89;100.00;100958.72;5538462;32;34604;-69
2022/11/02 01:32:00;;;;;;;;;;;;;;;9.99;100.00;100955.03;5552276;32;34576;-69
2022/11/02 01:35:09;;;;;;;;;;;;;;;10.00;100.00;100958.50;5552165;32;35212;-70
2022/11/02 01:38:15;;;;;;;;;;;;;;;10.02;100.00;100948.59;5552176;32;34516;-70
2022/11/02 01:41:23;;;;;;;;;;;;;;;10.02;100.00;100945.94;5539451;32;35023;-70
2022/11/02 01:44:32;;;;;;;;;;;;;;;10.01;100.00;100941.63;5552215;32;34653;-70
2022/11/02 01:47:42;;;;;;;;;;;;;;;9.96;100.00;100930.62;5552160;32;34597;-70
2022/11/02 01:50:48;;;;;;;;;;;;;;;9.93;100.00;100926.44;5552485;32;34866;-70
2022/11/02 01:53:56;;;;;;;;;;;;;;;9.95;100.00;100940.41;5552148;32;35186;-70
2022/11/02 01:57:05;;;;;;;;;;;;;;;9.92;100.00;100935.37;5552152;32;34551;-70
2022/11/02 02:00:14;;;;;;;;;;;;;;;9.90;100.00;100940.00;5552071;32;34531;-70
2022/11/02 02:03:20;;;;;;;;;;;;;;;9.88;100.00;100944.63;5551900;32;35243;-70
2022/11/02 02:06:27;;;;;;;;;;;;;;;9.86;100.00;100943.97;5551903;32;35283;-70
2022/11/02 02:09:37;;;;;;;;;;;;;;;9.87;100.00;100950.94;5552001;32;34675;-70
2022/11/02 02:12:44;;;;;;;;;;;;;;;9.88;100.00;100943.78;5551966;32;35106;-70
2022/11/02 02:16:15;;;;;;;;;;;;;;;9.87;100.00;100942.97;5551880;32;35074;-70
2022/11/02 02:19:43;;;;;;;;;;;;;;;9.88;100.00;100946.44;5551835;32;35050;-70
2022/11/02 02:22:55;;;;;;;;;;;;;;;9.98;100.00;100939.25;5551598;32;34545;-70
2022/11/02 02:26:22;;;;;;;;;;;;;;;9.99;100.00;100949.72;5551857;32;34607;-70
2022/11/02 02:29:29;;;;;;;;;;;;;;;9.96;100.00;100947.38;5551702;32;34480;-70
2022/11/02 02:32:38;;;;;;;;;;;;;;;9.98;100.00;100942.75;5551739;32;34477;-70
2022/11/02 02:35:52;;;;;;;;;;;;;;;10.02;100.00;100957.34;5551330;32;35276;-70
2022/11/02 02:39:05;;;;;;;;;;;;;;;10.02;100.00;100952.06;5537589;32;35143;-70
2022/11/02 02:42:19;;;;;;;;;;;;;;;10.04;100.00;100949.25;5551575;32;34525;-70
2022/11/02 02:45:43;;;;;;;;;;;;;;;10.08;100.00;100955.94;5551526;32;34546;-70
2022/11/02 02:48:54;;;;;;;;;;;;;;;10.08;100.00;100958.56;5551585;32;35183;-70
2022/11/02 02:52:02;;;;;;;;;;;;;;;9.98;100.00;100961.28;5551671;32;34398;-70
2022/11/02 02:55:10;;;;;;;;;;;;;;;9.96;100.00;100960.62;5538570;32;34460;-70
2022/11/02 02:58:23;;;;;;;;;;;;;;;10.01;100.00;100968.97;5551574;32;34639;-70
2022/11/02 03:01:30;;;;;;;;;;;;;;;10.06;100.00;100962.37;5551551;32;34946;-70
2022/11/02 03:04:38;;;;;;;;;;;;;;;10.00;100.00;100955.84;5551418;32;34492;-70
2022/11/02 03:07:46;;;;;;;;;;;;;;;10.00;100.00;100969.09;5538613;32;34375;-70
2022/11/02 03:11:12;;;;;;;;;;;;;;;9.98;100.00;100973.72;5551474;32;35176;-70
2022/11/02 03:14:38;;;;;;;;;;;;;;;10.02;100.00;100978.56;5551768;32;34481;-70
2022/11/02 03:17:55;;;;;;;;;;;;;;;9.98;100.00;100979.84;5537236;32;34494;-70
2022/11/02 03:21:27;;;;;;;;;;;;;;;9.93;100.00;100994.53;5551557;32;34316;-70
2022/11/02 03:24:40;;;;;;;;;;;;;;;9.87;100.00;100995.16;5545472;32;34307;-70
2022/11/02 03:28:00;;;;;;;;;;;;;;;9.76;100.00;100998.81;5551216;32;34955;-70
2022/11/02 03:31:14;;;;;;;;;;;;;;;9.69;100.00;100997.72;5551201;32;35137;-70
2022/11/02 03:34:27;;;;;;;;;;;;;;;9.76;100.00;101003.28;5551350;32;35042;-70
2022/11/02 03:37:39;;;;;;;;;;;;;;;9.91;100.00;101005.31;5537383;32;35346;-69
2022/11/02 03:40:47;;;;;;;;;;;;;;;9.96;100.00;101016.28;5551184;32;34866;-69
2022/11/02 03:43:58;;;;;;;;;;;;;;;9.99;100.00;101023.09;5536953;32;34538;-70
2022/11/02 03:47:07;;;;;;;;;;;;;;;9.87;100.00;101021.66;5550751;32;35095;-70
2022/11/02 03:50:18;;;;;;;;;;;;;;;9.79;100.00;101018.88;5550867;32;34547;-70
2022/11/02 03:53:42;;;;;;;;;;;;;;;9.77;100.00;101018.22;5551148;32;35208;-70
2022/11/02 03:56:50;;;;;;;;;;;;;;;9.78;100.00;101017.22;5551046;32;34677;-70
2022/11/02 04:00:07;;;;;;;;;;;;;;;9.85;100.00;101015.66;5551067;32;35217;-70
2022/11/02 04:03:18;;;;;;;;;;;;;;;9.89;100.00;101004.59;5550894;32;34830;-70
2022/11/02 04:08:55;;;;;;;;;;;;;;;10.40;100.00;100976.66;5564352;31;1271203;-70
2022/11/02 04:15:25;;;;;;;;;;;;;;;9.89;100.00;100990.50;5604766;31;34233;-70
2022/11/02 04:25:27;;;;;;;;;;;;;;;9.83;100.00;101020.25;5604687;31;34184;-72
2022/11/02 04:28:36;;;;;;;;;;;;;;;9.86;100.00;101023.47;5604599;31;34911;-72
2022/11/02 04:31:45;;;;;;;;;;;;;;;9.86;100.00;101026.09;5590741;31;35277;-72
2022/11/02 04:34:51;;;;;;;;;;;;;;;9.88;100.00;101024.13;5590864;31;35064;-72
2022/11/02 04:41:40;;;;;;;;;;;;;;;9.97;100.00;101035.69;5604992;31;34167;-72
2022/11/02 04:44:49;;;;;;;;;;;;;;;9.98;100.00;101035.50;5604551;31;34742;-71
2022/11/02 04:48:05;;;;;;;;;;;;;;;10.02;100.00;101039.53;5604538;31;34103;-71
2022/11/02 04:51:12;;;;;;;;;;;;;;;10.05;100.00;101046.38;5591065;31;34248;-71
2022/11/02 04:54:19;;;;;;;;;;;;;;;10.14;100.00;101044.63;5577597;31;33857;-71
2022/11/02 04:57:27;;;;;;;;;;;;;;;10.15;100.00;101047.16;5590380;31;34298;-71
2022/11/02 05:00:34;;;;;;;;;;;;;;;10.14;100.00;101039.34;5604777;31;34585;-71
2022/11/02 05:03:45;;;;;;;;;;;;;;;10.14;100.00;101053.44;5590127;31;34429;-71
2022/11/02 05:06:52;;;;;;;;;;;;;;;10.22;100.00;101052.72;5604062;31;34102;-71
2022/11/02 05:10:06;;;;;;;;;;;;;;;10.23;100.00;101046.44;5604375;31;34057;-71
2022/11/02 05:13:15;;;;;;;;;;;;;;;10.21;100.00;101057.19;5604302;31;34700;-71
2022/11/02 05:16:22;;;;;;;;;;;;;;;10.24;100.00;101058.72;5604300;31;34192;-71
2022/11/02 05:19:30;;;;;;;;;;;;;;;10.19;100.00;101053.84;5594742;31;34110;-72
2022/11/02 05:22:41;;;;;;;;;;;;;;;10.18;100.00;101051.34;5591111;31;33992;-72
2022/11/02 05:25:59;;;;;;;;;;;;;;;10.18;100.00;101046.03;5591007;31;34202;-73
2022/11/02 05:29:06;;;;;;;;;;;;;;;10.19;100.00;101051.19;5591114;31;34143;-71
2022/11/02 05:32:12;;;;;;;;;;;;;;;10.27;100.00;101058.41;5576908;31;35089;-71
2022/11/02 05:35:20;;;;;;;;;;;;;;;10.29;100.00;101056.44;5577050;31;34405;-71
2022/11/02 05:38:27;;;;;;;;;;;;;;;10.25;100.00;101063.87;5590788;31;34625;-70
2022/11/02 05:41:34;;;;;;;;;;;;;;;10.25;100.00;101069.19;5576421;31;34509;-72
2022/11/02 05:44:39;;;;;;;;;;;;;;;10.30;100.00;101063.41;5590928;31;34557;-72
2022/11/02 05:47:47;;;;;;;;;;;;;;;10.32;100.00;101077.34;5590730;31;34693;-72
2022/11/02 05:50:56;;;;;;;;;;;;;;;10.37;100.00;101069.78;5590738;31;34226;-72
2022/11/02 05:54:02;;;;;;;;;;;;;;;10.37;100.00;101073.28;5590556;31;34751;-71
2022/11/02 05:57:05;;;;;;;;;;;;;;;10.49;100.00;101068.59;5590598;31;34102;-72
2022/11/02 06:00:12;;;;;;;;;;;;;;;10.47;100.00;101065.25;5590699;31;34787;-73
2022/11/02 06:03:16;;;;;;;;;;;;;;;10.48;100.00;101068.75;5590888;31;34498;-73
2022/11/02 06:06:21;;;;;;;;;;;;;;;10.47;100.00;101062.59;5590092;31;34939;-72
2022/11/02 06:09:27;;;;;;;;;;;;;;;10.48;100.00;101058.13;5590482;31;34132;-72
2022/11/02 06:12:31;;;;;;;;;;;;;;;10.49;100.00;101057.16;5590455;31;34291;-73
2022/11/02 06:15:38;;;;;;;;;;;;;;;10.48;100.00;101058.97;5590448;31;34245;-72
2022/11/02 06:18:44;;;;;;;;;;;;;;;10.51;100.00;101056.00;5576991;31;34531;-72
2022/11/02 06:21:49;;;;;;;;;;;;;;;10.55;100.00;101060.03;5590461;31;34203;-73
2022/11/02 06:24:53;;;;;;;;;;;;;;;10.55;100.00;101060.03;5590382;31;34451;-73
2022/11/02 06:27:58;;;;;;;;;;;;;;;10.54;100.00;101063.69;5590358;31;34949;-73
2022/11/02 06:31:07;;;;;;;;;;;;;;;10.53;100.00;101063.81;5589256;31;34568;-76
2022/11/02 06:34:16;;;;;;;;;;;;;;;10.59;100.00;101058.75;5577179;31;34281;-74
2022/11/02 06:37:19;;;;;;;;;;;;;;;10.61;100.00;101069.19;5589917;31;34545;-72
2022/11/02 06:40:27;;;;;;;;;;;;;;;10.69;100.00;101059.50;5590082;31;34229;-74
2022/11/02 06:43:30;;;;;;;;;;;;;;;10.77;100.00;101058.75;5562967;31;35678;-77
2022/11/02 06:46:33;;;;;;;;;;;;;;;10.69;100.00;101064.81;5590061;31;34248;-74
2022/11/02 06:49:36;;;;;;;;;;;;;;;10.67;100.00;101061.47;5575845;31;34220;-75
2022/11/02 06:52:43;;;;;;;;;;;;;;;10.80;100.00;101071.69;5576175;31;34166;-74
2022/11/02 06:55:50;;;;;;;;;;;;;;;10.80;100.00;101075.19;5589658;31;34026;-73
2022/11/02 06:58:53;;;;;;;;;;;;;;;10.83;100.00;101088.16;5589195;31;34421;-72
2022/11/02 07:01:56;;;;;;;;;;;;;;;10.83;100.00;101087.34;5563026;31;34212;-73
2022/11/02 07:05:01;;;;;;;;;;;;;;;10.83;100.00;101092.62;5590074;31;34271;-73
2022/11/02 07:08:04;;;;;;;;;;;;;;;10.84;100.00;101095.13;5589393;31;34808;-72
2022/11/02 07:11:11;;;;;;;;;;;;;;;10.84;100.00;101091.66;5562746;31;35118;-73
2022/11/02 07:14:13;;;;;;;;;;;;;;;10.82;100.00;101090.97;5589797;31;34175;-72
2022/11/02 07:17:17;;;;;;;;;;;;;;;10.94;100.00;101092.38;5589448;31;34150;-72
2022/11/02 07:20:21;;;;;;;;;;;;;;;10.99;100.00;101081.34;5576296;31;34363;-72
2022/11/02 07:23:25;;;;;;;;;;;;;;;11.14;100.00;101085.09;5589621;31;34554;-72
2022/11/02 07:26:28;;;;;;;;;;;;;;;11.19;100.00;101083.63;5575821;31;35666;-72
2022/11/02 07:29:31;;;;;;;;;;;;;;;11.31;100.00;101094.87;5589653;31;34802;-72
2022/11/02 07:32:39;;;;;;;;;;;;;;;11.46;100.00;101090.66;5589579;31;34702;-72
2022/11/02 07:35:42;;;;;;;;;;;;;;;11.75;100.00;101085.88;5575800;31;34686;-72
2022/11/02 07:38:45;;;;;;;;;;;;;;;12.01;100.00;101079.66;5589359;31;34151;-72
2022/11/02 07:41:49;;;;;;;;;;;;;;;12.09;100.00;101088.53;5589024;31;34114;-72
2022/11/02 07:44:53;;;;;;;;;;;;;;;12.19;100.00;101091.06;5589392;31;34124;-72
2022/11/02 07:47:56;;;;;;;;;;;;;;;12.12;100.00;101101.50;5589410;31;34447;-72
2022/11/02 07:50:59;;;;;;;;;;;;;;;12.18;100.00;101095.53;5589224;31;34180;-72
2022/11/02 07:54:03;;;;;;;;;;;;;;;12.39;100.00;101096.94;5589126;31;34252;-70
2022/11/02 07:57:08;;;;;;;;;;;;;;;12.61;100.00;101097.16;5589318;31;34833;-72
2022/11/02 08:00:11;;;;;;;;;;;;;;;12.96;100.00;101105.88;5575034;31;34176;-72
2022/11/02 08:03:16;;;;;;;;;;;;;;;13.24;100.00;101088.56;5588950;31;34188;-72
2022/11/02 08:06:18;;;;;;;;;;;;;;;13.45;100.00;101096.91;5561958;31;34804;-72
2022/11/02 08:09:24;;;;;;;;;;;;;;;13.82;100.00;101103.47;5589182;31;34513;-72
2022/11/02 08:12:29;;;;;;;;;;;;;;;14.16;100.00;101101.34;5574751;31;33011;-71
2022/11/02 08:15:32;;;;;;;;;;;;;;;14.22;100.00;101098.00;5574999;31;34541;-72
2022/11/02 08:18:37;;;;;;;;;;;;;;;14.05;100.00;101103.53;5588832;31;34153;-72
2022/11/02 08:21:42;;;;;;;;;;;;;;;13.81;100.00;101097.28;5574809;31;34186;-72
2022/11/02 08:24:48;;;;;;;;;;;;;;;13.49;100.00;101102.72;5588782;31;34799;-72
2022/11/02 08:27:58;;;;;;;;;;;;;;;13.40;100.00;101101.91;5562108;31;33433;-71
2022/11/02 08:31:02;;;;;;;;;;;;;;;12.94;100.00;101099.84;5588574;31;34118;-71
2022/11/02 08:34:07;;;;;;;;;;;;;;;13.03;100.00;101093.53;5574547;31;34537;-71
2022/11/02 08:37:11;;;;;;;;;;;;;;;13.16;100.00;101091.25;5574242;31;35379;-71
2022/11/02 08:40:15;;;;;;;;;;;;;;;13.28;100.00;101089.06;5588293;31;34299;-71
2022/11/02 08:43:17;;;;;;;;;;;;;;;13.73;100.00;101091.16;5574391;31;35217;-72
2022/11/02 08:46:21;;;;;;;;;;;;;;;14.00;100.00;101100.56;5574302;31;34334;-71
2022/11/02 08:49:25;;;;;;;;;;;;;;;13.84;100.00;101094.31;5561306;31;34835;-71
2022/11/02 08:52:34;;;;;;;;;;;;;;;13.79;100.00;101098.47;5574079;31;33666;-71
2022/11/02 08:55:42;;;;;;;;;;;;;;;13.62;100.00;101097.69;5590497;31;34263;-72
2022/11/02 08:58:46;;;;;;;;;;;;;;;13.47;100.00;101096.69;5590627;31;34104;-71
2022/11/02 09:01:50;;;;;;;;;;;;;;;13.41;100.00;101092.03;5590561;31;34981;-71
2022/11/02 09:04:54;;;;;;;;;;;;;;;13.82;100.00;101093.63;5590579;31;34543;-71
2022/11/02 09:07:59;;;;;;;;;;;;;;;13.89;100.00;101088.44;5569732;32;34317;-71
2022/11/02 09:11:04;;;;;;;;;;;;;;;13.89;100.00;101086.59;5571086;32;34549;-71
2022/11/02 09:14:08;;;;;;;;;;;;;;;14.33;100.00;101080.72;5571210;32;34739;-71
2022/11/02 09:17:12;;;;;;;;;;;;;;;14.31;100.00;101070.25;5570319;32;34769;-71
2022/11/02 09:20:17;;;;;;;;;;;;;;;14.09;100.00;101083.50;5570136;32;35083;-72
2022/11/02 09:23:22;;;;;;;;;;;;;;;14.69;100.00;101086.41;5570854;32;34762;-72
2022/11/02 09:26:26;;;;;;;;;;;;;;;14.72;100.00;101084.19;5571056;32;34762;-72
2022/11/02 09:29:30;;;;;;;;;;;;;;;14.91;100.00;101084.75;5570964;32;34716;-72
2022/11/02 09:32:35;;;;;;;;;;;;;;;15.20;100.00;101080.31;5570736;32;34217;-70
2022/11/02 09:35:40;;;;;;;;;;;;;;;15.16;100.00;101073.66;5570848;32;34160;-71
2022/11/02 09:38:44;;;;;;;;;;;;;;;15.39;100.00;101078.16;5570242;32;34166;-71
2022/11/02 09:42:00;;;;;;;;;;;;;;;15.69;100.00;101073.66;5570628;32;34707;-71
2022/11/02 09:45:05;;;;;;;;;;;;;;;15.83;100.00;101067.53;5571069;32;34803;-71
2022/11/02 09:48:15;;;;;;;;;;;;;;;16.00;100.00;101064.44;5570649;32;34765;-71
2022/11/02 09:51:30;;;;;;;;;;;;;;;15.93;100.00;101070.72;5570345;32;34184;-72
2022/11/02 09:54:39;;;;;;;;;;;;;;;16.02;100.00;101072.31;5569940;32;34088;-71
2022/11/02 09:57:45;;;;;;;;;;;;;;;16.13;100.00;101073.66;5570710;32;34509;-71
2022/11/02 10:00:50;;;;;;;;;;;;;;;16.05;100.00;101063.87;5570256;32;34149;-71
2022/11/02 10:04:00;;;;;;;;;;;;;;;15.83;100.00;101057.63;5570453;32;34391;-71
2022/11/02 10:07:15;;;;;;;;;;;;;;;15.72;100.00;101063.47;5575009;31;33413;-71
2022/11/02 10:10:24;;;;;;;;;;;;;;;15.77;100.00;101065.56;5589898;31;34243;-71
2022/11/02 10:13:37;;;;;;;;;;;;;;;15.70;100.00;101056.63;5575706;31;34466;-70
2022/11/02 10:16:49;;;;;;;;;;;;;;;16.33;100.00;101062.16;5562834;31;34296;-70
2022/11/02 10:19:59;;;;;;;;;;;;;;;16.36;99.86;101064.47;5589237;31;34802;-70
2022/11/02 10:23:06;;;;;;;;;;;;;;;16.22;100.00;101062.66;5575804;31;35286;-70
2022/11/02 10:26:18;;;;;;;;;;;;;;;16.52;100.00;101066.09;5589777;31;34945;-70
2022/11/02 10:29:32;;;;;;;;;;;;;;;17.12;94.83;101062.16;5589750;31;34117;-71
2022/11/02 10:32:37;;;;;;;;;;;;;;;16.99;95.69;101054.00;5575594;31;34813;-72
2022/11/02 10:35:59;;;;;;;;;;;;;;;16.74;96.13;101051.72;5589920;31;34262;-71
2022/11/02 10:39:29;;;;;;;;;;;;;;;16.68;98.20;101057.00;5589876;31;34540;-70
2022/11/02 10:42:42;;;;;;;;;;;;;;;17.00;96.19;101052.97;5590056;31;34553;-71
2022/11/02 10:45:51;;;;;;;;;;;;;;;16.77;96.87;101048.66;5589886;31;34187;-70
2022/11/02 10:49:10;;;;;;;;;;;;;;;17.35;95.24;101052.84;5575880;31;35302;-70
2022/11/02 10:52:15;;;;;;;;;;;;;;;18.11;92.71;101052.88;5590482;31;34243;-71
2022/11/02 10:55:39;;;;;;;;;;;;;;;18.74;85.62;101045.44;5576455;31;33312;-72
2022/11/02 10:58:59;;;;;;;;;;;;;;;18.97;83.08;101053.97;5589933;31;34250;-72
2022/11/02 11:02:08;;;;;;;;;;;;;;;19.08;80.32;101050.63;5563324;31;33804;-71
2022/11/02 11:05:14;;;;;;;;;;;;;;;19.57;80.82;101052.06;5589892;31;34245;-73
2022/11/02 11:08:30;;;;;;;;;;;;;;;20.64;74.00;101054.97;5589520;31;34796;-72
2022/11/02 11:11:36;;;;;;;;;;;;;;;21.57;70.03;101050.50;5589954;31;34185;-71
2022/11/02 11:14:45;;;;;;;;;;;;;;;24.40;57.69;101060.37;5589705;31;34125;-71
2022/11/02 11:18:12;;;;;;;;;;;;;;;26.32;52.20;101060.69;5589054;31;34344;-72
2022/11/02 11:21:36;;;;;;;;;;;;;;;24.86;53.57;101058.50;5589939;31;34465;-71
2022/11/02 11:24:39;;;;;;;;;;;;;;;21.32;65.54;101061.31;5589602;31;34310;-70
2022/11/02 11:27:46;;;;;;;;;;;;;;;19.82;73.55;101056.56;5589575;31;34273;-72
2022/11/02 11:31:13;;;;;;;;;;;;;;;19.82;74.61;101058.44;5589524;31;34662;-70
2022/11/02 11:34:23;;;;;;;;;;;;;;;20.00;73.21;101055.03;5568456;31;35138;-69
2022/11/02 11:37:26;;;;;;;;;;;;;;;19.85;73.71;101058.00;5589708;31;35026;-71
2022/11/02 11:40:33;;;;;;;;;;;;;;;19.44;76.30;101061.84;5575293;31;34336;-73
2022/11/02 11:43:39;;;;;;;;;;;;;;;18.31;82.05;101059.16;5589346;31;34833;-72
2022/11/02 11:46:44;;;;;;;;;;;;;;;18.03;83.95;101061.13;5589249;31;34112;-69
2022/11/02 11:49:48;;;;;;;;;;;;;;;17.76;86.53;101050.28;5588991;31;34309;-70
2022/11/02 11:53:17;;;;;;;;;;;;;;;17.31;89.10;101051.59;5589282;31;34176;-70
2022/11/02 11:56:25;;;;;;;;;;;;;;;17.22;90.62;101050.09;5575395;31;34217;-71
2022/11/02 11:59:31;;;;;;;;;;;;;;;17.36;89.30;101042.97;5575375;31;34590;-70
2022/11/02 12:02:35;;;;;;;;;;;;;;;17.76;87.42;101046.75;5589267;31;34090;-70
2022/11/02 12:05:49;;;;;;;;;;;;;;;19.09;79.71;101045.06;5589278;31;34153;-70
2022/11/02 12:09:11;;;;;;;;;;;;;;;20.17;73.75;101019.34;5588662;31;34167;-70
2022/11/02 12:12:22;;;;;;;;;;;;;;;20.56;71.08;101017.50;5588629;31;34256;-70
2022/11/02 12:15:44;;;;;;;;;;;;;;;20.09;72.29;101011.50;5575220;31;34153;-70
2022/11/02 12:19:01;;;;;;;;;;;;;;;19.72;74.63;101010.41;5574714;31;34367;-70
2022/11/02 12:22:31;;;;;;;;;;;;;;;19.79;73.41;101016.63;5588995;31;34154;-70
2022/11/02 12:25:39;;;;;;;;;;;;;;;19.56;75.30;101010.06;5588756;31;34782;-69
2022/11/02 12:28:51;;;;;;;;;;;;;;;18.95;78.84;100997.69;5575656;31;35154;-70
2022/11/02 12:32:10;;;;;;;;;;;;;;;19.12;79.00;100997.28;5591369;31;34854;-71
2022/11/02 12:35:26;;;;;;;;;;;;;;;18.84;78.39;101000.16;5577545;31;34162;-71
2022/11/02 12:38:42;;;;;;;;;;;;;;;19.35;76.68;100987.72;5577288;31;36273;-71
2022/11/02 12:41:45;;;;;;;;;;;;;;;19.40;77.20;100992.47;5590982;31;34203;-70
2022/11/02 12:45:07;;;;;;;;;;;;;;;19.72;74.33;100993.44;5564297;31;35234;-70
2022/11/02 12:48:13;;;;;;;;;;;;;;;19.64;74.44;100989.13;5577310;31;35066;-71
2022/11/02 12:51:20;;;;;;;;;;;;;;;19.07;77.06;100990.63;5591209;31;34887;-71
2022/11/02 12:54:27;;;;;;;;;;;;;;;19.58;75.98;100984.59;5577153;31;34264;-71
2022/11/02 12:57:33;;;;;;;;;;;;;;;19.78;74.46;100988.03;5591053;31;34261;-71
2022/11/02 13:00:39;;;;;;;;;;;;;;;18.95;76.30;100978.03;5590862;31;34066;-71
2022/11/02 13:03:47;;;;;;;;;;;;;;;19.16;76.91;100972.44;5590682;31;34637;-71
2022/11/02 13:06:51;;;;;;;;;;;;;;;19.11;76.01;100977.62;5591038;31;34842;-71
2022/11/02 13:10:02;;;;;;;;;;;;;;;19.18;75.23;100981.12;5590702;31;34754;-70
2022/11/02 13:13:11;;;;;;;;;;;;;;;19.28;75.01;100978.00;5590797;31;34147;-70
2022/11/02 13:16:16;;;;;;;;;;;;;;;19.35;75.08;100978.81;5590680;31;34023;-71
2022/11/02 13:19:21;;;;;;;;;;;;;;;19.03;76.35;100975.97;5591069;31;34941;-71
2022/11/02 13:22:32;;;;;;;;;;;;;;;18.83;78.08;100971.66;5590699;31;34741;-70
2022/11/02 13:25:41;;;;;;;;;;;;;;;18.62;80.11;100973.50;5590758;31;34215;-70
2022/11/02 13:28:50;;;;;;;;;;;;;;;18.50;81.84;100971.56;5576511;31;34488;-69
2022/11/02 13:31:59;;;;;;;;;;;;;;;18.51;81.22;100968.69;5577001;31;34086;-70
2022/11/02 13:35:05;;;;;;;;;;;;;;;18.30;83.79;100973.44;5590719;31;34829;-69
2022/11/02 13:38:11;;;;;;;;;;;;;;;18.04;83.81;100971.50;5590183;31;34786;-69
2022/11/02 13:41:25;;;;;;;;;;;;;;;18.01;81.77;100967.34;5589988;31;34726;-70
2022/11/02 13:44:35;;;;;;;;;;;;;;;17.79;83.74;100974.72;5576508;31;34274;-70
2022/11/02 13:48:02;;;;;;;;;;;;;;;17.73;82.69;100977.34;5576508;31;34105;-70
2022/11/02 13:51:17;;;;;;;;;;;;;;;17.64;81.70;100975.87;5576921;31;34292;-69
2022/11/02 13:54:25;;;;;;;;;;;;;;;17.41;81.48;100976.16;5576205;31;34381;-69
2022/11/02 13:57:38;;;;;;;;;;;;;;;17.33;82.51;100979.78;5576806;31;34152;-69
2022/11/02 14:00:44;;;;;;;;;;;;;;;17.18;79.29;100979.09;5590325;31;34920;-70
2022/11/02 14:03:49;;;;;;;;;;;;;;;17.25;70.41;100977.28;5590508;31;34185;-71
2022/11/02 14:06:55;;;;;;;;;;;;;;;17.26;70.15;100994.19;5575933;31;32844;-70
2022/11/02 14:10:28;;;;;;;;;;;;;;;17.23;69.34;100987.34;5590155;31;34247;-71
2022/11/02 14:13:50;;;;;;;;;;;;;;;17.30;71.51;100993.59;5569546;31;34942;-69
2022/11/02 14:16:53;;;;;;;;;;;;;;;17.25;70.41;100990.69;5575514;31;34953;-70
2022/11/02 14:20:03;;;;;;;;;;;;;;;17.04;70.96;100992.63;5589918;31;34875;-69
2022/11/02 14:23:13;;;;;;;;;;;;;;;17.05;70.51;100991.56;5589547;31;34550;-68
2022/11/02 14:26:29;;;;;;;;;;;;;;;17.13;70.42;100989.59;5590273;31;34801;-70
2022/11/02 14:29:37;;;;;;;;;;;;;;;17.14;70.60;100995.75;5589796;31;34250;-69
2022/11/02 14:32:55;;;;;;;;;;;;;;;17.13;72.16;100994.13;5589867;31;34763;-70
2022/11/02 14:36:08;;;;;;;;;;;;;;;17.15;73.24;100986.69;5575917;31;34231;-69
2022/11/02 14:39:37;;;;;;;;;;;;;;;16.90;75.87;100988.97;5589571;31;34128;-70
2022/11/02 14:42:50;;;;;;;;;;;;;;;16.89;77.22;100988.12;5589699;31;34223;-70
2022/11/02 14:46:05;;;;;;;;;;;;;;;16.78;78.82;100995.91;5590317;31;34546;-70
2022/11/02 14:49:26;;;;;;;;;;;;;;;16.75;79.46;100998.97;5589555;31;34337;-70
2022/11/02 14:52:31;;;;;;;;;;;;;;;16.67;80.06;100993.72;5561938;31;35548;-70
2022/11/02 14:55:35;;;;;;;;;;;;;;;16.63;80.60;101001.31;5589474;31;34220;-70
2022/11/02 14:58:39;;;;;;;;;;;;;;;16.66;81.31;101000.94;5589727;31;34881;-70
2022/11/02 15:01:58;;;;;;;;;;;;;;;16.66;81.36;101002.78;5574954;31;34472;-69
2022/11/02 15:05:03;;;;;;;;;;;;;;;16.55;82.63;101005.97;5574854;31;34207;-69
2022/11/02 15:08:15;;;;;;;;;;;;;;;16.43;83.07;100998.44;5575190;31;35027;-70
2022/11/02 15:11:38;;;;;;;;;;;;;;;16.47;83.73;101007.72;5589387;31;34765;-69
2022/11/02 15:14:46;;;;;;;;;;;;;;;16.37;86.04;101001.03;5575473;31;35063;-70
2022/11/02 15:17:52;;;;;;;;;;;;;;;16.29;84.40;101001.16;5588814;31;34161;-70
2022/11/02 15:21:10;;;;;;;;;;;;;;;16.15;85.24;101002.03;5588872;31;34730;-70
2022/11/02 15:24:18;;;;;;;;;;;;;;;15.99;87.17;101003.06;5574221;31;34300;-70
2022/11/02 15:27:23;;;;;;;;;;;;;;;15.86;89.34;101003.75;5574136;31;34303;-70
2022/11/02 15:30:29;;;;;;;;;;;;;;;15.68;89.27;101011.34;5587864;31;34293;-70
2022/11/02 15:33:37;;;;;;;;;;;;;;;15.65;90.10;101014.38;5588825;31;34255;-71
2022/11/02 15:36:43;;;;;;;;;;;;;;;15.56;90.93;101012.81;5588211;31;34671;-71
2022/11/02 15:39:51;;;;;;;;;;;;;;;15.44;93.17;101016.94;5588366;31;34408;-70
2022/11/02 15:43:25;;;;;;;;;;;;;;;15.32;93.66;101019.22;5573751;31;34196;-70
2022/11/02 15:46:30;;;;;;;;;;;;;;;15.22;94.60;101018.66;5575218;31;34109;-70
2022/11/02 15:49:41;;;;;;;;;;;;;;;15.08;95.32;101022.12;5587180;31;34548;-70
2022/11/02 15:52:53;;;;;;;;;;;;;;;14.97;96.59;101023.41;5587780;31;34780;-70
2022/11/02 15:56:32;;;;;;;;;;;;;;;14.90;97.62;101022.47;5587553;31;34224;-71
2022/11/02 15:59:53;;;;;;;;;;;;;;;14.80;98.38;101019.22;5573281;31;33973;-70
2022/11/02 16:03:01;;;;;;;;;;;;;;;14.63;99.98;101021.16;5574273;31;34368;-70
2022/11/02 16:06:11;;;;;;;;;;;;;;;14.49;100.00;101021.94;5575079;31;34506;-70
2022/11/02 16:09:27;;;;;;;;;;;;;;;14.41;100.00;101011.34;5588603;31;34221;-70
2022/11/02 16:12:33;;;;;;;;;;;;;;;14.23;100.00;101019.56;5588116;31;34741;-70
2022/11/02 16:15:42;;;;;;;;;;;;;;;14.10;100.00;101021.97;5588321;31;34663;-70
2022/11/02 16:18:52;;;;;;;;;;;;;;;13.98;100.00;101018.06;5574368;31;32965;-69
2022/11/02 16:21:57;;;;;;;;;;;;;;;13.89;100.00;101021.78;5574515;31;34593;-70
2022/11/02 16:25:10;;;;;;;;;;;;;;;13.78;100.00;101014.16;5574167;31;34508;-69